Hudson Oaks, Texas
Current Conditions -  °F | °C
As of 3:35 PM on Sunday 21 Dec 2014 (Local Time) from KGDJ Reporting Station
Overcast Overcast  
Wind Chill: 55°   Ceiling: 1800
Heat Index: 55°   Visibility: 10mi
Dew Point: 47°   Wind: 9mph
Humidity: 77%   Direction: 150°SSE
Pressure: 29.85"   Gusts: NA
Location:  32.6854°N, 97.7998°W
Report Text: KGDJ 212135Z AUTO 15008KT 10SM BKN018 OVC022 13/09 A2985 RMK AO2 T01250086
Loading
Personal Weather Stations






























Interactive Weather Map New forecast layout! Learn more

10-Day Weather Forecast

Advertisements
Track Severe Weather on mobile